sensor_id;sensor_type;location;lat;lon;timestamp;temperature;humidity
11128;DHT22;5618;51.028;5.234;2022-08-19T00:00:25;22.10;99.90
11128;DHT22;5618;51.028;5.234;2022-08-19T00:02:53;22.00;99.90
11128;DHT22;5618;51.028;5.234;2022-08-19T00:05:20;22.00;99.90
11128;DHT22;5618;51.028;5.234;2022-08-19T00:07:45;22.00;99.90
11128;DHT22;5618;51.028;5.234;2022-08-19T00:10:13;22.00;99.90
11128;DHT22;5618;51.028;5.234;2022-08-19T00:12:39;22.00;99.90
11128;DHT22;5618;51.028;5.234;2022-08-19T00:15:08;22.00;99.90
11128;DHT22;5618;51.028;5.234;2022-08-19T00:17:43;22.00;99.90
11128;DHT22;5618;51.028;5.234;2022-08-19T00:20:12;22.00;99.90
11128;DHT22;5618;51.028;5.234;2022-08-19T00:22:38;21.90;99.90
11128;DHT22;5618;51.028;5.234;2022-08-19T00:25:05;21.80;99.90
11128;DHT22;5618;51.028;5.234;2022-08-19T00:27:31;21.80;99.90
11128;DHT22;5618;51.028;5.234;2022-08-19T00:29:57;21.70;99.90
11128;DHT22;5618;51.028;5.234;2022-08-19T00:32:24;21.50;99.90
11128;DHT22;5618;51.028;5.234;2022-08-19T00:34:50;21.40;99.90
11128;DHT22;5618;51.028;5.234;2022-08-19T00:37:18;21.40;99.90
11128;DHT22;5618;51.028;5.234;2022-08-19T00:39:44;21.30;99.90
11128;DHT22;5618;51.028;5.234;2022-08-19T00:42:10;21.20;99.90
11128;DHT22;5618;51.028;5.234;2022-08-19T00:44:37;21.10;99.90
11128;DHT22;5618;51.028;5.234;2022-08-19T00:47:02;20.80;99.90
11128;DHT22;5618;51.028;5.234;2022-08-19T00:49:36;20.60;99.90
11128;DHT22;5618;51.028;5.234;2022-08-19T00:52:14;20.50;99.90
11128;DHT22;5618;51.028;5.234;2022-08-19T00:54:41;20.40;99.90
11128;DHT22;5618;51.028;5.234;2022-08-19T00:57:10;20.40;99.90
11128;DHT22;5618;51.028;5.234;2022-08-19T00:59:42;20.40;99.90
11128;DHT22;5618;51.028;5.234;2022-08-19T01:02:08;20.50;99.90
11128;DHT22;5618;51.028;5.234;2022-08-19T01:04:34;20.50;99.90
11128;DHT22;5618;51.028;5.234;2022-08-19T01:07:01;20.40;99.90
11128;DHT22;5618;51.028;5.234;2022-08-19T01:09:27;20.40;99.90
11128;DHT22;5618;51.028;5.234;2022-08-19T01:11:52;20.20;99.90
11128;DHT22;5618;51.028;5.234;2022-08-19T01:14:18;20.10;99.90
11128;DHT22;5618;51.028;5.234;2022-08-19T01:16:45;19.90;99.90
11128;DHT22;5618;51.028;5.234;2022-08-19T01:19:26;19.90;99.90
11128;DHT22;5618;51.028;5.234;2022-08-19T01:22:02;20.00;99.90
11128;DHT22;5618;51.028;5.234;2022-08-19T01:24:29;20.00;99.90
11128;DHT22;5618;51.028;5.234;2022-08-19T01:26:56;20.00;99.90
11128;DHT22;5618;51.028;5.234;2022-08-19T01:29:22;20.00;99.90
11128;DHT22;5618;51.028;5.234;2022-08-19T01:31:47;20.00;99.90
11128;DHT22;5618;51.028;5.234;2022-08-19T01:34:14;20.00;99.90
11128;DHT22;5618;51.028;5.234;2022-08-19T01:36:45;20.00;99.90
11128;DHT22;5618;51.028;5.234;2022-08-19T01:39:23;20.00;99.90
11128;DHT22;5618;51.028;5.234;2022-08-19T01:41:50;19.90;99.90
11128;DHT22;5618;51.028;5.234;2022-08-19T01:44:20;19.90;99.90
11128;DHT22;5618;51.028;5.234;2022-08-19T01:46:49;19.80;99.90
11128;DHT22;5618;51.028;5.234;2022-08-19T01:49:17;19.70;99.90
11128;DHT22;5618;51.028;5.234;2022-08-19T01:51:43;19.70;99.90
11128;DHT22;5618;51.028;5.234;2022-08-19T01:54:10;19.80;99.90
11128;DHT22;5618;51.028;5.234;2022-08-19T01:56:37;19.80;99.90
11128;DHT22;5618;51.028;5.234;2022-08-19T01:59:08;19.90;99.90
11128;DHT22;5618;51.028;5.234;2022-08-19T02:01:35;19.90;99.90
11128;DHT22;5618;51.028;5.234;2022-08-19T02:04:01;19.80;99.90
11128;DHT22;5618;51.028;5.234;2022-08-19T02:06:28;19.80;99.90
11128;DHT22;5618;51.028;5.234;2022-08-19T02:08:54;19.80;99.90
11128;DHT22;5618;51.028;5.234;2022-08-19T02:11:22;19.80;99.90
11128;DHT22;5618;51.028;5.234;2022-08-19T02:13:50;19.90;99.90
11128;DHT22;5618;51.028;5.234;2022-08-19T02:16:19;20.00;99.90
11128;DHT22;5618;51.028;5.234;2022-08-19T02:18:45;19.90;99.90
11128;DHT22;5618;51.028;5.234;2022-08-19T02:21:12;19.90;99.90
11128;DHT22;5618;51.028;5.234;2022-08-19T02:23:38;20.00;99.90
11128;DHT22;5618;51.028;5.234;2022-08-19T02:26:04;19.80;99.90
11128;DHT22;5618;51.028;5.234;2022-08-19T02:28:29;19.90;99.90
11128;DHT22;5618;51.028;5.234;2022-08-19T02:30:55;19.90;99.90
11128;DHT22;5618;51.028;5.234;2022-08-19T02:33:21;19.90;99.90
11128;DHT22;5618;51.028;5.234;2022-08-19T02:35:46;19.80;99.90
11128;DHT22;5618;51.028;5.234;2022-08-19T02:38:13;19.80;99.90
11128;DHT22;5618;51.028;5.234;2022-08-19T02:40:57;19.80;99.90
11128;DHT22;5618;51.028;5.234;2022-08-19T02:43:26;19.90;99.90
11128;DHT22;5618;51.028;5.234;2022-08-19T02:45:53;19.90;99.90
11128;DHT22;5618;51.028;5.234;2022-08-19T02:48:19;20.00;99.90
11128;DHT22;5618;51.028;5.234;2022-08-19T02:50:46;20.00;99.90
11128;DHT22;5618;51.028;5.234;2022-08-19T02:53:12;20.10;99.90
11128;DHT22;5618;51.028;5.234;2022-08-19T02:55:47;20.10;99.90
11128;DHT22;5618;51.028;5.234;2022-08-19T02:58:14;20.00;99.90
11128;DHT22;5618;51.028;5.234;2022-08-19T03:00:54;20.20;99.90
11128;DHT22;5618;51.028;5.234;2022-08-19T03:03:21;20.20;99.90
11128;DHT22;5618;51.028;5.234;2022-08-19T03:05:46;20.20;99.90
11128;DHT22;5618;51.028;5.234;2022-08-19T03:08:13;20.20;99.90
11128;DHT22;5618;51.028;5.234;2022-08-19T03:10:46;20.20;99.90
11128;DHT22;5618;51.028;5.234;2022-08-19T03:13:14;20.20;99.90
11128;DHT22;5618;51.028;5.234;2022-08-19T03:15:43;20.10;99.90
11128;DHT22;5618;51.028;5.234;2022-08-19T03:18:09;20.20;99.90
11128;DHT22;5618;51.028;5.234;2022-08-19T03:20:44;20.20;99.90
11128;DHT22;5618;51.028;5.234;2022-08-19T03:23:10;20.10;99.90
11128;DHT22;5618;51.028;5.234;2022-08-19T03:25:43;20.20;99.90
11128;DHT22;5618;51.028;5.234;2022-08-19T03:28:11;20.20;99.90
11128;DHT22;5618;51.028;5.234;2022-08-19T03:30:38;20.20;99.90
11128;DHT22;5618;51.028;5.234;2022-08-19T03:33:06;20.20;99.90
11128;DHT22;5618;51.028;5.234;2022-08-19T03:35:32;20.20;99.90
11128;DHT22;5618;51.028;5.234;2022-08-19T03:37:59;20.10;99.90
11128;DHT22;5618;51.028;5.234;2022-08-19T03:40:25;20.00;99.90
11128;DHT22;5618;51.028;5.234;2022-08-19T03:42:51;20.00;99.90
11128;DHT22;5618;51.028;5.234;2022-08-19T03:45:17;20.10;99.90
11128;DHT22;5618;51.028;5.234;2022-08-19T03:47:43;20.00;99.90
11128;DHT22;5618;51.028;5.234;2022-08-19T03:50:08;20.10;99.90
11128;DHT22;5618;51.028;5.234;2022-08-19T03:52:34;20.20;99.90
11128;DHT22;5618;51.028;5.234;2022-08-19T03:55:02;20.20;99.90
11128;DHT22;5618;51.028;5.234;2022-08-19T03:57:27;20.20;99.90
11128;DHT22;5618;51.028;5.234;2022-08-19T03:59:53;20.30;99.90
11128;DHT22;5618;51.028;5.234;2022-08-19T04:02:18;20.20;99.90
11128;DHT22;5618;51.028;5.234;2022-08-19T04:04:44;20.30;99.90
11128;DHT22;5618;51.028;5.234;2022-08-19T04:07:12;20.30;99.90
11128;DHT22;5618;51.028;5.234;2022-08-19T04:09:41;20.20;99.90
11128;DHT22;5618;51.028;5.234;2022-08-19T04:12:07;20.10;99.90
11128;DHT22;5618;51.028;5.234;2022-08-19T04:14:33;20.20;99.90
11128;DHT22;5618;51.028;5.234;2022-08-19T04:17:01;20.20;99.90
11128;DHT22;5618;51.028;5.234;2022-08-19T04:19:30;20.20;99.90
11128;DHT22;5618;51.028;5.234;2022-08-19T04:21:56;20.20;99.90
11128;DHT22;5618;51.028;5.234;2022-08-19T04:24:23;20.30;99.90
11128;DHT22;5618;51.028;5.234;2022-08-19T04:26:48;20.30;99.90
11128;DHT22;5618;51.028;5.234;2022-08-19T04:29:17;20.20;99.90
11128;DHT22;5618;51.028;5.234;2022-08-19T04:31:45;20.20;99.90
11128;DHT22;5618;51.028;5.234;2022-08-19T04:34:13;20.20;99.90
11128;DHT22;5618;51.028;5.234;2022-08-19T04:36:41;20.20;99.90
11128;DHT22;5618;51.028;5.234;2022-08-19T04:39:14;20.10;99.90
11128;DHT22;5618;51.028;5.234;2022-08-19T04:41:41;20.00;99.90
11128;DHT22;5618;51.028;5.234;2022-08-19T04:44:25;19.70;99.90
11128;DHT22;5618;51.028;5.234;2022-08-19T04:46:51;19.60;99.90
11128;DHT22;5618;51.028;5.234;2022-08-19T04:49:18;19.50;99.90
11128;DHT22;5618;51.028;5.234;2022-08-19T04:51:46;19.40;99.90
11128;DHT22;5618;51.028;5.234;2022-08-19T04:54:13;19.30;99.90
11128;DHT22;5618;51.028;5.234;2022-08-19T04:56:40;19.30;99.90
11128;DHT22;5618;51.028;5.234;2022-08-19T04:59:06;19.30;99.90
11128;DHT22;5618;51.028;5.234;2022-08-19T05:01:33;19.20;99.90
11128;DHT22;5618;51.028;5.234;2022-08-19T05:04:04;19.20;99.90
11128;DHT22;5618;51.028;5.234;2022-08-19T05:06:31;19.20;99.90
11128;DHT22;5618;51.028;5.234;2022-08-19T05:08:59;19.10;99.90
11128;DHT22;5618;51.028;5.234;2022-08-19T05:11:27;19.00;99.90
11128;DHT22;5618;51.028;5.234;2022-08-19T05:13:54;19.00;99.90
11128;DHT22;5618;51.028;5.234;2022-08-19T05:16:22;18.90;99.90
11128;DHT22;5618;51.028;5.234;2022-08-19T05:18:48;19.00;99.90
11128;DHT22;5618;51.028;5.234;2022-08-19T05:21:33;18.90;99.90
11128;DHT22;5618;51.028;5.234;2022-08-19T05:24:22;18.90;99.90
11128;DHT22;5618;51.028;5.234;2022-08-19T05:26:49;18.80;99.90
11128;DHT22;5618;51.028;5.234;2022-08-19T05:29:18;18.80;99.90
11128;DHT22;5618;51.028;5.234;2022-08-19T05:31:44;19.00;99.90
11128;DHT22;5618;51.028;5.234;2022-08-19T05:34:10;19.00;99.90
11128;DHT22;5618;51.028;5.234;2022-08-19T05:36:40;19.00;99.90
11128;DHT22;5618;51.028;5.234;2022-08-19T05:39:14;19.10;99.90
11128;DHT22;5618;51.028;5.234;2022-08-19T05:41:46;19.10;99.90
11128;DHT22;5618;51.028;5.234;2022-08-19T05:44:13;19.10;99.90
11128;DHT22;5618;51.028;5.234;2022-08-19T05:46:40;19.10;99.90
11128;DHT22;5618;51.028;5.234;2022-08-19T05:49:08;19.10;99.90
11128;DHT22;5618;51.028;5.234;2022-08-19T05:51:35;19.10;99.90
11128;DHT22;5618;51.028;5.234;2022-08-19T05:54:03;19.10;99.90
11128;DHT22;5618;51.028;5.234;2022-08-19T05:56:31;19.30;99.90
11128;DHT22;5618;51.028;5.234;2022-08-19T05:58:58;19.50;99.90
11128;DHT22;5618;51.028;5.234;2022-08-19T06:01:25;19.60;99.90
11128;DHT22;5618;51.028;5.234;2022-08-19T06:03:51;19.90;99.90
11128;DHT22;5618;51.028;5.234;2022-08-19T06:06:18;20.10;99.90
11128;DHT22;5618;51.028;5.234;2022-08-19T06:08:44;20.30;99.90
11128;DHT22;5618;51.028;5.234;2022-08-19T06:11:31;20.20;99.90
11128;DHT22;5618;51.028;5.234;2022-08-19T06:14:04;20.20;99.90
11128;DHT22;5618;51.028;5.234;2022-08-19T06:16:33;20.40;99.90
11128;DHT22;5618;51.028;5.234;2022-08-19T06:19:02;20.40;99.90
11128;DHT22;5618;51.028;5.234;2022-08-19T06:21:29;20.30;99.90
11128;DHT22;5618;51.028;5.234;2022-08-19T06:23:56;20.50;99.90
11128;DHT22;5618;51.028;5.234;2022-08-19T06:26:22;20.60;99.90
11128;DHT22;5618;51.028;5.234;2022-08-19T06:28:49;20.70;99.90
11128;DHT22;5618;51.028;5.234;2022-08-19T06:31:18;20.60;99.90
11128;DHT22;5618;51.028;5.234;2022-08-19T06:33:45;20.70;99.90
11128;DHT22;5618;51.028;5.234;2022-08-19T06:36:23;20.70;99.90
11128;DHT22;5618;51.028;5.234;2022-08-19T06:39:05;20.70;99.90
11128;DHT22;5618;51.028;5.234;2022-08-19T06:41:34;20.60;99.90
11128;DHT22;5618;51.028;5.234;2022-08-19T06:44:00;20.70;99.90
11128;DHT22;5618;51.028;5.234;2022-08-19T06:46:26;20.60;99.90
11128;DHT22;5618;51.028;5.234;2022-08-19T06:48:52;20.50;99.90
11128;DHT22;5618;51.028;5.234;2022-08-19T06:51:19;20.60;99.90
11128;DHT22;5618;51.028;5.234;2022-08-19T06:53:49;20.70;99.90
11128;DHT22;5618;51.028;5.234;2022-08-19T06:56:17;20.50;99.90
11128;DHT22;5618;51.028;5.234;2022-08-19T06:58:43;20.60;99.90
11128;DHT22;5618;51.028;5.234;2022-08-19T07:01:10;20.60;99.90
11128;DHT22;5618;51.028;5.234;2022-08-19T07:03:37;20.60;99.90
11128;DHT22;5618;51.028;5.234;2022-08-19T07:06:10;20.60;99.90
11128;DHT22;5618;51.028;5.234;2022-08-19T07:08:37;20.60;99.90
11128;DHT22;5618;51.028;5.234;2022-08-19T07:11:09;20.50;99.90
11128;DHT22;5618;51.028;5.234;2022-08-19T07:13:36;20.70;99.90
11128;DHT22;5618;51.028;5.234;2022-08-19T07:16:10;20.70;99.90
11128;DHT22;5618;51.028;5.234;2022-08-19T07:18:37;20.50;99.90
11128;DHT22;5618;51.028;5.234;2022-08-19T07:21:11;20.60;99.90
11128;DHT22;5618;51.028;5.234;2022-08-19T07:23:37;20.40;99.90
11128;DHT22;5618;51.028;5.234;2022-08-19T07:28:36;20.90;99.90
11128;DHT22;5618;51.028;5.234;2022-08-19T07:31:06;20.80;99.90
11128;DHT22;5618;51.028;5.234;2022-08-19T07:33:33;21.00;99.90
11128;DHT22;5618;51.028;5.234;2022-08-19T07:36:01;21.00;99.90
11128;DHT22;5618;51.028;5.234;2022-08-19T07:38:26;21.00;99.90
11128;DHT22;5618;51.028;5.234;2022-08-19T07:40:52;21.20;99.90
11128;DHT22;5618;51.028;5.234;2022-08-19T07:43:19;21.30;99.90
11128;DHT22;5618;51.028;5.234;2022-08-19T07:45:51;21.20;99.90
11128;DHT22;5618;51.028;5.234;2022-08-19T07:48:18;20.80;99.90
11128;DHT22;5618;51.028;5.234;2022-08-19T07:50:44;20.80;99.90
11128;DHT22;5618;51.028;5.234;2022-08-19T07:53:09;20.60;99.90
11128;DHT22;5618;51.028;5.234;2022-08-19T07:55:37;20.70;99.90
11128;DHT22;5618;51.028;5.234;2022-08-19T07:58:02;20.80;99.90
11128;DHT22;5618;51.028;5.234;2022-08-19T08:00:30;20.70;99.90
11128;DHT22;5618;51.028;5.234;2022-08-19T08:02:55;20.90;99.90
11128;DHT22;5618;51.028;5.234;2022-08-19T08:05:22;21.10;99.90
11128;DHT22;5618;51.028;5.234;2022-08-19T08:08:06;21.30;99.90
11128;DHT22;5618;51.028;5.234;2022-08-19T08:10:50;21.40;99.90
11128;DHT22;5618;51.028;5.234;2022-08-19T08:13:16;21.20;99.90
11128;DHT22;5618;51.028;5.234;2022-08-19T08:15:41;21.30;99.90
11128;DHT22;5618;51.028;5.234;2022-08-19T08:18:11;21.40;99.90
11128;DHT22;5618;51.028;5.234;2022-08-19T08:20:37;21.30;99.90
11128;DHT22;5618;51.028;5.234;2022-08-19T08:23:02;21.30;99.90
11128;DHT22;5618;51.028;5.234;2022-08-19T08:25:46;21.30;99.90
11128;DHT22;5618;51.028;5.234;2022-08-19T08:28:14;21.40;99.90
11128;DHT22;5618;51.028;5.234;2022-08-19T08:30:40;21.90;99.90
11128;DHT22;5618;51.028;5.234;2022-08-19T08:33:07;22.20;99.90
11128;DHT22;5618;51.028;5.234;2022-08-19T08:35:33;22.40;99.90
11128;DHT22;5618;51.028;5.234;2022-08-19T08:37:59;22.40;99.90
11128;DHT22;5618;51.028;5.234;2022-08-19T08:40:39;22.00;99.90
11128;DHT22;5618;51.028;5.234;2022-08-19T08:43:29;22.50;99.90
11128;DHT22;5618;51.028;5.234;2022-08-19T08:46:04;23.00;99.90
11128;DHT22;5618;51.028;5.234;2022-08-19T08:48:38;23.20;99.90
11128;DHT22;5618;51.028;5.234;2022-08-19T08:51:10;23.70;99.90
11128;DHT22;5618;51.028;5.234;2022-08-19T08:53:38;23.20;99.90
11128;DHT22;5618;51.028;5.234;2022-08-19T08:56:06;23.10;99.90
11128;DHT22;5618;51.028;5.234;2022-08-19T09:01:17;23.50;99.90
11128;DHT22;5618;51.028;5.234;2022-08-19T09:03:44;23.60;99.90
11128;DHT22;5618;51.028;5.234;2022-08-19T09:11:54;24.10;99.90
11128;DHT22;5618;51.028;5.234;2022-08-19T09:16:59;24.80;99.90
11128;DHT22;5618;51.028;5.234;2022-08-19T09:19:29;24.60;99.90
11128;DHT22;5618;51.028;5.234;2022-08-19T09:21:55;24.70;99.90
11128;DHT22;5618;51.028;5.234;2022-08-19T09:24:21;24.70;99.90
11128;DHT22;5618;51.028;5.234;2022-08-19T09:26:46;24.90;99.90
11128;DHT22;5618;51.028;5.234;2022-08-19T09:29:12;25.20;99.90
11128;DHT22;5618;51.028;5.234;2022-08-19T09:31:38;25.40;99.90
11128;DHT22;5618;51.028;5.234;2022-08-19T09:34:03;25.60;99.90
11128;DHT22;5618;51.028;5.234;2022-08-19T09:36:34;25.60;99.90
11128;DHT22;5618;51.028;5.234;2022-08-19T09:39:03;25.50;99.90
11128;DHT22;5618;51.028;5.234;2022-08-19T09:41:29;25.00;99.90
11128;DHT22;5618;51.028;5.234;2022-08-19T09:43:56;25.10;99.90
11128;DHT22;5618;51.028;5.234;2022-08-19T09:46:24;25.10;99.90
11128;DHT22;5618;51.028;5.234;2022-08-19T09:48:50;25.20;99.90
11128;DHT22;5618;51.028;5.234;2022-08-19T09:51:20;25.40;99.90
11128;DHT22;5618;51.028;5.234;2022-08-19T09:53:48;25.30;99.90
11128;DHT22;5618;51.028;5.234;2022-08-19T09:56:18;25.20;99.90
11128;DHT22;5618;51.028;5.234;2022-08-19T09:58:44;25.10;99.90
11128;DHT22;5618;51.028;5.234;2022-08-19T10:01:16;25.30;99.90
11128;DHT22;5618;51.028;5.234;2022-08-19T10:03:42;25.30;99.90
11128;DHT22;5618;51.028;5.234;2022-08-19T10:06:08;25.30;99.90
11128;DHT22;5618;51.028;5.234;2022-08-19T10:08:36;25.40;99.90
11128;DHT22;5618;51.028;5.234;2022-08-19T10:11:03;25.60;99.90
11128;DHT22;5618;51.028;5.234;2022-08-19T10:13:31;25.60;99.90
11128;DHT22;5618;51.028;5.234;2022-08-19T10:16:04;25.40;99.90
11128;DHT22;5618;51.028;5.234;2022-08-19T10:18:30;25.00;99.90
11128;DHT22;5618;51.028;5.234;2022-08-19T10:21:05;25.10;99.90
11128;DHT22;5618;51.028;5.234;2022-08-19T10:23:34;24.80;99.90
11128;DHT22;5618;51.028;5.234;2022-08-19T10:26:00;25.00;99.90
11128;DHT22;5618;51.028;5.234;2022-08-19T10:28:26;25.10;99.90
11128;DHT22;5618;51.028;5.234;2022-08-19T10:30:52;25.20;99.90
11128;DHT22;5618;51.028;5.234;2022-08-19T10:33:18;25.00;99.90
11128;DHT22;5618;51.028;5.234;2022-08-19T10:35:43;25.10;99.90
11128;DHT22;5618;51.028;5.234;2022-08-19T10:38:12;25.00;99.90
11128;DHT22;5618;51.028;5.234;2022-08-19T10:40:38;24.80;99.90
11128;DHT22;5618;51.028;5.234;2022-08-19T10:43:03;24.80;99.90
11128;DHT22;5618;51.028;5.234;2022-08-19T10:45:29;24.80;99.90
11128;DHT22;5618;51.028;5.234;2022-08-19T10:47:54;24.70;99.90
11128;DHT22;5618;51.028;5.234;2022-08-19T10:50:20;24.70;99.90
11128;DHT22;5618;51.028;5.234;2022-08-19T10:53:06;24.40;99.90
11128;DHT22;5618;51.028;5.234;2022-08-19T10:55:34;24.50;99.90
11128;DHT22;5618;51.028;5.234;2022-08-19T10:58:19;24.60;99.90
11128;DHT22;5618;51.028;5.234;2022-08-19T11:00:58;24.80;99.90
11128;DHT22;5618;51.028;5.234;2022-08-19T11:03:25;24.50;99.90
11128;DHT22;5618;51.028;5.234;2022-08-19T11:05:58;24.80;99.90
11128;DHT22;5618;51.028;5.234;2022-08-19T11:08:24;25.40;99.90
11128;DHT22;5618;51.028;5.234;2022-08-19T11:10:53;25.60;99.90
11128;DHT22;5618;51.028;5.234;2022-08-19T11:13:27;25.60;99.90
11128;DHT22;5618;51.028;5.234;2022-08-19T11:16:03;25.70;99.90
11128;DHT22;5618;51.028;5.234;2022-08-19T11:18:29;25.50;99.90
11128;DHT22;5618;51.028;5.234;2022-08-19T11:20:54;25.20;99.90
11128;DHT22;5618;51.028;5.234;2022-08-19T11:23:20;25.30;99.90
11128;DHT22;5618;51.028;5.234;2022-08-19T11:25:46;25.50;99.90
11128;DHT22;5618;51.028;5.234;2022-08-19T11:28:12;25.70;99.90
11128;DHT22;5618;51.028;5.234;2022-08-19T11:30:38;25.60;99.90
11128;DHT22;5618;51.028;5.234;2022-08-19T11:33:04;25.90;99.90
11128;DHT22;5618;51.028;5.234;2022-08-19T11:35:30;26.10;99.90
11128;DHT22;5618;51.028;5.234;2022-08-19T11:37:56;26.30;99.90
11128;DHT22;5618;51.028;5.234;2022-08-19T11:40:26;26.50;99.90
11128;DHT22;5618;51.028;5.234;2022-08-19T11:42:52;26.30;99.90
11128;DHT22;5618;51.028;5.234;2022-08-19T11:45:21;26.20;99.90
11128;DHT22;5618;51.028;5.234;2022-08-19T11:47:47;25.90;99.90
11128;DHT22;5618;51.028;5.234;2022-08-19T11:50:13;26.00;99.90
11128;DHT22;5618;51.028;5.234;2022-08-19T11:52:39;25.80;99.90
11128;DHT22;5618;51.028;5.234;2022-08-19T11:55:05;25.50;99.90
11128;DHT22;5618;51.028;5.234;2022-08-19T11:57:31;25.40;99.90
11128;DHT22;5618;51.028;5.234;2022-08-19T11:59:57;25.60;99.90
11128;DHT22;5618;51.028;5.234;2022-08-19T12:02:23;25.50;99.90
11128;DHT22;5618;51.028;5.234;2022-08-19T12:04:49;25.30;99.90
11128;DHT22;5618;51.028;5.234;2022-08-19T12:07:15;25.30;99.90
11128;DHT22;5618;51.028;5.234;2022-08-19T12:09:40;25.50;99.90
11128;DHT22;5618;51.028;5.234;2022-08-19T12:12:06;25.50;99.90
11128;DHT22;5618;51.028;5.234;2022-08-19T12:14:32;25.50;99.90
11128;DHT22;5618;51.028;5.234;2022-08-19T12:16:58;25.40;99.90
11128;DHT22;5618;51.028;5.234;2022-08-19T12:19:23;25.50;99.90
11128;DHT22;5618;51.028;5.234;2022-08-19T12:21:51;25.50;99.90
11128;DHT22;5618;51.028;5.234;2022-08-19T12:24:18;25.40;99.90
11128;DHT22;5618;51.028;5.234;2022-08-19T12:26:48;25.40;99.90
11128;DHT22;5618;51.028;5.234;2022-08-19T12:29:15;25.10;99.90
11128;DHT22;5618;51.028;5.234;2022-08-19T12:31:40;25.00;99.90
11128;DHT22;5618;51.028;5.234;2022-08-19T12:34:06;24.80;99.90
11128;DHT22;5618;51.028;5.234;2022-08-19T12:36:33;24.80;99.90
11128;DHT22;5618;51.028;5.234;2022-08-19T12:38:59;24.80;99.90
11128;DHT22;5618;51.028;5.234;2022-08-19T12:41:25;24.80;99.90
11128;DHT22;5618;51.028;5.234;2022-08-19T12:43:51;24.80;99.90
11128;DHT22;5618;51.028;5.234;2022-08-19T12:46:18;25.10;99.90
11128;DHT22;5618;51.028;5.234;2022-08-19T12:48:44;25.30;99.90
11128;DHT22;5618;51.028;5.234;2022-08-19T12:51:14;25.30;99.90
11128;DHT22;5618;51.028;5.234;2022-08-19T12:53:40;25.40;99.90
11128;DHT22;5618;51.028;5.234;2022-08-19T12:56:08;25.50;99.90
11128;DHT22;5618;51.028;5.234;2022-08-19T12:58:33;25.50;99.90
11128;DHT22;5618;51.028;5.234;2022-08-19T13:01:05;25.70;99.90
11128;DHT22;5618;51.028;5.234;2022-08-19T13:03:31;25.60;99.90
11128;DHT22;5618;51.028;5.234;2022-08-19T13:05:57;25.20;99.90
11128;DHT22;5618;51.028;5.234;2022-08-19T13:08:22;25.30;99.90
11128;DHT22;5618;51.028;5.234;2022-08-19T13:10:48;25.30;99.90
11128;DHT22;5618;51.028;5.234;2022-08-19T13:13:14;25.20;99.90
11128;DHT22;5618;51.028;5.234;2022-08-19T13:15:41;25.20;99.90
11128;DHT22;5618;51.028;5.234;2022-08-19T13:18:09;25.00;99.90
11128;DHT22;5618;51.028;5.234;2022-08-19T13:20:36;24.90;99.90
11128;DHT22;5618;51.028;5.234;2022-08-19T13:23:02;24.80;99.90
11128;DHT22;5618;51.028;5.234;2022-08-19T13:25:29;24.90;99.90
11128;DHT22;5618;51.028;5.234;2022-08-19T13:27:55;24.80;99.90
11128;DHT22;5618;51.028;5.234;2022-08-19T13:30:21;24.80;99.90
11128;DHT22;5618;51.028;5.234;2022-08-19T13:33:05;24.70;99.90
11128;DHT22;5618;51.028;5.234;2022-08-19T13:36:06;24.60;99.90
11128;DHT22;5618;51.028;5.234;2022-08-19T13:38:33;24.60;99.90
11128;DHT22;5618;51.028;5.234;2022-08-19T13:41:04;24.90;99.90
11128;DHT22;5618;51.028;5.234;2022-08-19T13:43:30;25.10;99.90
11128;DHT22;5618;51.028;5.234;2022-08-19T13:45:56;25.30;99.90
11128;DHT22;5618;51.028;5.234;2022-08-19T13:48:23;25.30;99.90
11128;DHT22;5618;51.028;5.234;2022-08-19T13:50:49;25.30;99.90
11128;DHT22;5618;51.028;5.234;2022-08-19T13:53:16;25.60;99.90
11128;DHT22;5618;51.028;5.234;2022-08-19T13:55:42;25.60;99.90
11128;DHT22;5618;51.028;5.234;2022-08-19T13:58:09;25.40;99.90
11128;DHT22;5618;51.028;5.234;2022-08-19T14:00:42;25.30;99.90
11128;DHT22;5618;51.028;5.234;2022-08-19T14:03:08;25.60;99.90
11128;DHT22;5618;51.028;5.234;2022-08-19T14:05:34;25.60;99.90
11128;DHT22;5618;51.028;5.234;2022-08-19T14:08:00;25.60;99.90
11128;DHT22;5618;51.028;5.234;2022-08-19T14:10:27;25.70;99.90
11128;DHT22;5618;51.028;5.234;2022-08-19T14:12:55;25.60;99.90
11128;DHT22;5618;51.028;5.234;2022-08-19T14:15:21;25.70;99.90
11128;DHT22;5618;51.028;5.234;2022-08-19T14:17:48;25.60;99.90
11128;DHT22;5618;51.028;5.234;2022-08-19T14:20:15;25.80;99.90
11128;DHT22;5618;51.028;5.234;2022-08-19T14:22:42;25.90;99.90
11128;DHT22;5618;51.028;5.234;2022-08-19T14:25:18;26.20;99.90
11128;DHT22;5618;51.028;5.234;2022-08-19T14:27:45;26.10;99.90
11128;DHT22;5618;51.028;5.234;2022-08-19T14:30:13;26.10;99.90
11128;DHT22;5618;51.028;5.234;2022-08-19T14:32:40;26.00;99.90
11128;DHT22;5618;51.028;5.234;2022-08-19T14:35:08;26.10;99.90
11128;DHT22;5618;51.028;5.234;2022-08-19T14:37:34;25.80;99.90
11128;DHT22;5618;51.028;5.234;2022-08-19T14:40:02;25.80;99.90
11128;DHT22;5618;51.028;5.234;2022-08-19T14:42:28;25.80;99.90
11128;DHT22;5618;51.028;5.234;2022-08-19T14:44:58;25.80;99.90
11128;DHT22;5618;51.028;5.234;2022-08-19T14:47:24;26.10;99.90
11128;DHT22;5618;51.028;5.234;2022-08-19T14:49:50;26.50;99.90
11128;DHT22;5618;51.028;5.234;2022-08-19T14:52:15;26.50;99.90
11128;DHT22;5618;51.028;5.234;2022-08-19T14:54:41;26.40;99.90
11128;DHT22;5618;51.028;5.234;2022-08-19T14:57:07;26.30;99.90
11128;DHT22;5618;51.028;5.234;2022-08-19T14:59:34;26.10;99.90
11128;DHT22;5618;51.028;5.234;2022-08-19T15:02:00;26.10;99.90
11128;DHT22;5618;51.028;5.234;2022-08-19T15:04:25;26.10;99.90
11128;DHT22;5618;51.028;5.234;2022-08-19T15:06:51;25.90;99.90
11128;DHT22;5618;51.028;5.234;2022-08-19T15:09:17;25.70;99.90
11128;DHT22;5618;51.028;5.234;2022-08-19T15:11:42;25.60;99.90
11128;DHT22;5618;51.028;5.234;2022-08-19T15:14:08;25.60;99.90
11128;DHT22;5618;51.028;5.234;2022-08-19T15:16:35;25.70;99.90
11128;DHT22;5618;51.028;5.234;2022-08-19T15:19:03;26.00;99.90
11128;DHT22;5618;51.028;5.234;2022-08-19T15:21:29;26.10;99.90
11128;DHT22;5618;51.028;5.234;2022-08-19T15:23:56;26.10;99.90
11128;DHT22;5618;51.028;5.234;2022-08-19T15:26:22;26.20;99.90
11128;DHT22;5618;51.028;5.234;2022-08-19T15:28:48;26.20;99.90
11128;DHT22;5618;51.028;5.234;2022-08-19T15:31:17;26.20;99.90
11128;DHT22;5618;51.028;5.234;2022-08-19T15:33:43;26.00;99.90
11128;DHT22;5618;51.028;5.234;2022-08-19T15:36:09;25.90;99.90
11128;DHT22;5618;51.028;5.234;2022-08-19T15:38:37;25.70;99.90
11128;DHT22;5618;51.028;5.234;2022-08-19T15:41:04;25.50;99.90
11128;DHT22;5618;51.028;5.234;2022-08-19T15:46:18;25.50;99.90
11128;DHT22;5618;51.028;5.234;2022-08-19T15:48:44;25.20;99.90
11128;DHT22;5618;51.028;5.234;2022-08-19T15:51:10;24.60;99.90
11128;DHT22;5618;51.028;5.234;2022-08-19T15:53:35;24.20;99.90
11128;DHT22;5618;51.028;5.234;2022-08-19T15:56:01;24.30;99.90
11128;DHT22;5618;51.028;5.234;2022-08-19T15:58:27;24.50;99.90
11128;DHT22;5618;51.028;5.234;2022-08-19T16:01:11;24.90;99.90
11128;DHT22;5618;51.028;5.234;2022-08-19T16:03:56;25.20;99.90
11128;DHT22;5618;51.028;5.234;2022-08-19T16:06:53;25.40;99.90